sensor_id;sensor_type;location;lat;lon;timestamp;temperature;humidity
66722;SHT31;53633;49.932;10.884;2023-07-09T00:00:16;19.24;66.23
66722;SHT31;53633;49.932;10.884;2023-07-09T00:02:43;19.10;66.84
66722;SHT31;53633;49.932;10.884;2023-07-09T00:05:17;19.06;66.80
66722;SHT31;53633;49.932;10.884;2023-07-09T00:07:44;18.95;67.16
66722;SHT31;53633;49.932;10.884;2023-07-09T00:10:17;18.96;67.40
66722;SHT31;53633;49.932;10.884;2023-07-09T00:12:46;18.91;67.37
66722;SHT31;53633;49.932;10.884;2023-07-09T00:15:14;18.79;67.95
66722;SHT31;53633;49.932;10.884;2023-07-09T00:17:42;18.81;68.01
66722;SHT31;53633;49.932;10.884;2023-07-09T00:20:13;18.81;68.32
66722;SHT31;53633;49.932;10.884;2023-07-09T00:22:40;18.69;68.64
66722;SHT31;53633;49.932;10.884;2023-07-09T00:25:10;18.82;68.28
66722;SHT31;53633;49.932;10.884;2023-07-09T00:27:36;18.57;67.93
66722;SHT31;53633;49.932;10.884;2023-07-09T00:30:08;18.74;67.83
66722;SHT31;53633;49.932;10.884;2023-07-09T00:32:39;18.89;68.12
66722;SHT31;53633;49.932;10.884;2023-07-09T00:35:06;18.85;66.88
66722;SHT31;53633;49.932;10.884;2023-07-09T00:37:33;18.71;66.97
66722;SHT31;53633;49.932;10.884;2023-07-09T00:40:00;18.69;67.28
66722;SHT31;53633;49.932;10.884;2023-07-09T00:42:27;18.50;67.64
66722;SHT31;53633;49.932;10.884;2023-07-09T00:44:54;18.40;67.79
66722;SHT31;53633;49.932;10.884;2023-07-09T00:47:40;18.36;68.22
66722;SHT31;53633;49.932;10.884;2023-07-09T00:50:14;18.41;68.13
66722;SHT31;53633;49.932;10.884;2023-07-09T00:52:46;18.36;68.40
66722;SHT31;53633;49.932;10.884;2023-07-09T00:55:19;18.32;68.42
66722;SHT31;53633;49.932;10.884;2023-07-09T00:57:48;18.27;68.86
66722;SHT31;53633;49.932;10.884;2023-07-09T01:00:16;18.30;68.58
66722;SHT31;53633;49.932;10.884;2023-07-09T01:02:46;18.29;68.80
66722;SHT31;53633;49.932;10.884;2023-07-09T01:05:15;18.34;68.50
66722;SHT31;53633;49.932;10.884;2023-07-09T01:07:43;18.30;68.46
66722;SHT31;53633;49.932;10.884;2023-07-09T01:10:10;18.19;68.61
66722;SHT31;53633;49.932;10.884;2023-07-09T01:12:37;18.22;68.84
66722;SHT31;53633;49.932;10.884;2023-07-09T01:15:04;18.03;69.21
66722;SHT31;53633;49.932;10.884;2023-07-09T01:17:32;18.17;69.12
66722;SHT31;53633;49.932;10.884;2023-07-09T01:20:00;18.13;68.27
66722;SHT31;53633;49.932;10.884;2023-07-09T01:22:28;18.03;68.31
66722;SHT31;53633;49.932;10.884;2023-07-09T01:24:57;18.02;69.33
66722;SHT31;53633;49.932;10.884;2023-07-09T01:27:26;17.96;68.82
66722;SHT31;53633;49.932;10.884;2023-07-09T01:29:54;17.86;69.40
66722;SHT31;53633;49.932;10.884;2023-07-09T01:32:21;17.86;69.41
66722;SHT31;53633;49.932;10.884;2023-07-09T01:34:50;17.77;69.71
66722;SHT31;53633;49.932;10.884;2023-07-09T01:37:19;17.68;69.96
66722;SHT31;53633;49.932;10.884;2023-07-09T01:39:47;17.64;70.50
66722;SHT31;53633;49.932;10.884;2023-07-09T01:42:14;17.68;70.41
66722;SHT31;53633;49.932;10.884;2023-07-09T01:44:41;17.52;70.72
66722;SHT31;53633;49.932;10.884;2023-07-09T01:47:08;17.60;70.27
66722;SHT31;53633;49.932;10.884;2023-07-09T01:49:34;17.60;70.63
66722;SHT31;53633;49.932;10.884;2023-07-09T01:52:02;17.50;70.67
66722;SHT31;53633;49.932;10.884;2023-07-09T01:54:30;17.44;70.42
66722;SHT31;53633;49.932;10.884;2023-07-09T01:57:12;17.31;70.49
66722;SHT31;53633;49.932;10.884;2023-07-09T01:59:39;17.26;70.49
66722;SHT31;53633;49.932;10.884;2023-07-09T02:02:06;17.30;70.70
66722;SHT31;53633;49.932;10.884;2023-07-09T02:04:33;17.27;70.54
66722;SHT31;53633;49.932;10.884;2023-07-09T02:07:00;17.24;70.90
66722;SHT31;53633;49.932;10.884;2023-07-09T02:09:26;17.19;70.87
66722;SHT31;53633;49.932;10.884;2023-07-09T02:11:53;17.14;70.86
66722;SHT31;53633;49.932;10.884;2023-07-09T02:14:21;17.09;70.93
66722;SHT31;53633;49.932;10.884;2023-07-09T02:16:48;17.12;70.91
66722;SHT31;53633;49.932;10.884;2023-07-09T02:19:15;16.97;71.05
66722;SHT31;53633;49.932;10.884;2023-07-09T02:21:42;16.89;71.20
66722;SHT31;53633;49.932;10.884;2023-07-09T02:24:08;16.86;71.69
66722;SHT31;53633;49.932;10.884;2023-07-09T02:26:35;16.89;71.93
66722;SHT31;53633;49.932;10.884;2023-07-09T02:29:02;17.02;71.73
66722;SHT31;53633;49.932;10.884;2023-07-09T02:31:30;16.97;71.63
66722;SHT31;53633;49.932;10.884;2023-07-09T02:33:57;16.99;72.08
66722;SHT31;53633;49.932;10.884;2023-07-09T02:36:24;17.04;71.87
66722;SHT31;53633;49.932;10.884;2023-07-09T02:38:51;16.96;71.62
66722;SHT31;53633;49.932;10.884;2023-07-09T02:41:18;17.02;71.52
66722;SHT31;53633;49.932;10.884;2023-07-09T02:43:44;17.07;71.08
66722;SHT31;53633;49.932;10.884;2023-07-09T02:46:11;16.87;71.76
66722;SHT31;53633;49.932;10.884;2023-07-09T02:48:39;16.83;71.91
66722;SHT31;53633;49.932;10.884;2023-07-09T02:51:06;16.79;72.14
66722;SHT31;53633;49.932;10.884;2023-07-09T02:53:32;16.80;72.39
66722;SHT31;53633;49.932;10.884;2023-07-09T02:55:59;16.83;72.31
66722;SHT31;53633;49.932;10.884;2023-07-09T02:58:26;16.75;72.33
66722;SHT31;53633;49.932;10.884;2023-07-09T03:00:53;16.79;72.17
66722;SHT31;53633;49.932;10.884;2023-07-09T03:03:20;16.80;72.11
66722;SHT31;53633;49.932;10.884;2023-07-09T03:05:49;16.75;72.10
66722;SHT31;53633;49.932;10.884;2023-07-09T03:08:15;16.62;72.64
66722;SHT31;53633;49.932;10.884;2023-07-09T03:10:42;16.61;73.47
66722;SHT31;53633;49.932;10.884;2023-07-09T03:13:09;16.65;73.23
66722;SHT31;53633;49.932;10.884;2023-07-09T03:15:36;16.65;73.29
66722;SHT31;53633;49.932;10.884;2023-07-09T03:18:03;16.58;73.56
66722;SHT31;53633;49.932;10.884;2023-07-09T03:20:29;16.48;73.65
66722;SHT31;53633;49.932;10.884;2023-07-09T03:22:57;16.47;74.08
66722;SHT31;53633;49.932;10.884;2023-07-09T03:25:24;16.54;74.02
66722;SHT31;53633;49.932;10.884;2023-07-09T03:27:51;16.59;73.84
66722;SHT31;53633;49.932;10.884;2023-07-09T03:30:18;16.64;73.89
66722;SHT31;53633;49.932;10.884;2023-07-09T03:32:45;16.69;73.74
66722;SHT31;53633;49.932;10.884;2023-07-09T03:35:12;16.75;73.68
66722;SHT31;53633;49.932;10.884;2023-07-09T03:37:39;16.78;73.45
66722;SHT31;53633;49.932;10.884;2023-07-09T03:40:10;16.72;73.49
66722;SHT31;53633;49.932;10.884;2023-07-09T03:42:37;16.75;73.64
66722;SHT31;53633;49.932;10.884;2023-07-09T03:45:04;16.82;73.67
66722;SHT31;53633;49.932;10.884;2023-07-09T03:47:31;16.87;73.49
66722;SHT31;53633;49.932;10.884;2023-07-09T03:49:58;16.86;73.71
66722;SHT31;53633;49.932;10.884;2023-07-09T03:52:24;16.86;73.72
66722;SHT31;53633;49.932;10.884;2023-07-09T03:54:51;16.90;73.54
66722;SHT31;53633;49.932;10.884;2023-07-09T03:57:19;16.96;72.87
66722;SHT31;53633;49.932;10.884;2023-07-09T03:59:46;17.13;72.24
66722;SHT31;53633;49.932;10.884;2023-07-09T04:02:13;17.31;71.90
66722;SHT31;53633;49.932;10.884;2023-07-09T04:04:39;17.35;71.49
66722;SHT31;53633;49.932;10.884;2023-07-09T04:07:06;17.41;71.27
66722;SHT31;53633;49.932;10.884;2023-07-09T04:09:33;17.47;71.20
66722;SHT31;53633;49.932;10.884;2023-07-09T04:12:00;17.55;70.52
66722;SHT31;53633;49.932;10.884;2023-07-09T04:14:28;17.74;70.28
66722;SHT31;53633;49.932;10.884;2023-07-09T04:16:55;18.02;69.42
66722;SHT31;53633;49.932;10.884;2023-07-09T04:19:22;18.67;68.01
66722;SHT31;53633;49.932;10.884;2023-07-09T04:21:48;19.40;65.32
66722;SHT31;53633;49.932;10.884;2023-07-09T04:24:16;19.87;64.30
66722;SHT31;53633;49.932;10.884;2023-07-09T04:26:43;20.15;63.91
66722;SHT31;53633;49.932;10.884;2023-07-09T04:29:10;20.23;63.63
66722;SHT31;53633;49.932;10.884;2023-07-09T04:31:38;20.37;63.41
66722;SHT31;53633;49.932;10.884;2023-07-09T04:34:05;20.47;63.50
66722;SHT31;53633;49.932;10.884;2023-07-09T04:36:32;20.56;63.53
66722;SHT31;53633;49.932;10.884;2023-07-09T04:38:59;20.52;63.89
66722;SHT31;53633;49.932;10.884;2023-07-09T04:41:26;20.67;63.55
66722;SHT31;53633;49.932;10.884;2023-07-09T04:43:52;20.95;63.17
66722;SHT31;53633;49.932;10.884;2023-07-09T04:46:19;21.05;63.04
66722;SHT31;53633;49.932;10.884;2023-07-09T04:48:47;21.64;61.83
66722;SHT31;53633;49.932;10.884;2023-07-09T04:51:14;22.12;60.45
66722;SHT31;53633;49.932;10.884;2023-07-09T04:53:41;22.83;58.88
66722;SHT31;53633;49.932;10.884;2023-07-09T04:56:08;23.66;56.78
66722;SHT31;53633;49.932;10.884;2023-07-09T04:58:34;24.28;54.99
66722;SHT31;53633;49.932;10.884;2023-07-09T05:01:01;24.62;54.21
66722;SHT31;53633;49.932;10.884;2023-07-09T05:03:28;25.23;53.42
66722;SHT31;53633;49.932;10.884;2023-07-09T05:05:56;25.30;53.17
66722;SHT31;53633;49.932;10.884;2023-07-09T05:08:23;25.51;52.60
66722;SHT31;53633;49.932;10.884;2023-07-09T05:10:51;25.93;51.65
66722;SHT31;53633;49.932;10.884;2023-07-09T05:13:18;26.32;50.95
66722;SHT31;53633;49.932;10.884;2023-07-09T05:15:46;26.81;49.89
66722;SHT31;53633;49.932;10.884;2023-07-09T05:18:14;26.49;50.42
66722;SHT31;53633;49.932;10.884;2023-07-09T05:20:41;26.84;49.62
66722;SHT31;53633;49.932;10.884;2023-07-09T05:23:09;26.60;50.82
66722;SHT31;53633;49.932;10.884;2023-07-09T05:25:37;26.44;50.66
66722;SHT31;53633;49.932;10.884;2023-07-09T05:28:04;26.58;50.54
66722;SHT31;53633;49.932;10.884;2023-07-09T05:30:32;26.60;50.86
66722;SHT31;53633;49.932;10.884;2023-07-09T05:32:58;27.16;49.45
66722;SHT31;53633;49.932;10.884;2023-07-09T05:35:26;27.86;48.51
66722;SHT31;53633;49.932;10.884;2023-07-09T05:37:53;28.59;46.66
66722;SHT31;53633;49.932;10.884;2023-07-09T05:40:22;28.51;47.25
66722;SHT31;53633;49.932;10.884;2023-07-09T05:42:48;28.28;46.95
66722;SHT31;53633;49.932;10.884;2023-07-09T05:45:16;28.86;46.02
66722;SHT31;53633;49.932;10.884;2023-07-09T05:47:43;29.14;45.64
66722;SHT31;53633;49.932;10.884;2023-07-09T05:50:10;29.34;45.28
66722;SHT31;53633;49.932;10.884;2023-07-09T05:52:36;29.24;44.84
66722;SHT31;53633;49.932;10.884;2023-07-09T05:55:04;29.63;44.24
66722;SHT31;53633;49.932;10.884;2023-07-09T05:57:32;29.92;43.81
66722;SHT31;53633;49.932;10.884;2023-07-09T05:59:59;29.86;44.32
66722;SHT31;53633;49.932;10.884;2023-07-09T06:02:25;30.02;43.91
66722;SHT31;53633;49.932;10.884;2023-07-09T06:04:52;30.34;43.14
66722;SHT31;53633;49.932;10.884;2023-07-09T06:07:19;30.02;43.58
66722;SHT31;53633;49.932;10.884;2023-07-09T06:09:46;30.54;41.68
66722;SHT31;53633;49.932;10.884;2023-07-09T06:12:13;30.59;42.00
66722;SHT31;53633;49.932;10.884;2023-07-09T06:14:41;30.25;42.35
66722;SHT31;53633;49.932;10.884;2023-07-09T06:17:08;30.59;42.40
66722;SHT31;53633;49.932;10.884;2023-07-09T06:19:34;30.24;42.39
66722;SHT31;53633;49.932;10.884;2023-07-09T06:22:01;30.83;41.13
66722;SHT31;53633;49.932;10.884;2023-07-09T06:24:28;30.89;42.05
66722;SHT31;53633;49.932;10.884;2023-07-09T06:26:55;30.62;41.88
66722;SHT31;53633;49.932;10.884;2023-07-09T06:29:22;30.95;40.31
66722;SHT31;53633;49.932;10.884;2023-07-09T06:31:50;31.75;39.05
66722;SHT31;53633;49.932;10.884;2023-07-09T06:34:17;32.29;38.42
66722;SHT31;53633;49.932;10.884;2023-07-09T06:36:43;31.71;39.79
66722;SHT31;53633;49.932;10.884;2023-07-09T06:39:11;32.01;39.19
66722;SHT31;53633;49.932;10.884;2023-07-09T06:41:37;32.74;37.51
66722;SHT31;53633;49.932;10.884;2023-07-09T06:44:04;33.25;35.67
66722;SHT31;53633;49.932;10.884;2023-07-09T06:46:31;33.89;36.19
66722;SHT31;53633;49.932;10.884;2023-07-09T06:48:59;33.35;37.32
66722;SHT31;53633;49.932;10.884;2023-07-09T06:51:26;32.68;38.32
66722;SHT31;53633;49.932;10.884;2023-07-09T06:53:53;33.87;36.30
66722;SHT31;53633;49.932;10.884;2023-07-09T06:56:20;34.55;34.48
66722;SHT31;53633;49.932;10.884;2023-07-09T06:58:46;34.90;34.95
66722;SHT31;53633;49.932;10.884;2023-07-09T07:01:13;34.31;34.58
66722;SHT31;53633;49.932;10.884;2023-07-09T07:03:40;33.84;35.61
66722;SHT31;53633;49.932;10.884;2023-07-09T07:06:08;34.20;35.64
66722;SHT31;53633;49.932;10.884;2023-07-09T07:08:35;34.18;34.75
66722;SHT31;53633;49.932;10.884;2023-07-09T07:11:03;34.41;35.42
66722;SHT31;53633;49.932;10.884;2023-07-09T07:13:32;34.29;34.57
66722;SHT31;53633;49.932;10.884;2023-07-09T07:15:59;34.44;34.04
66722;SHT31;53633;49.932;10.884;2023-07-09T07:18:26;34.63;34.05
66722;SHT31;53633;49.932;10.884;2023-07-09T07:20:53;33.42;36.48
66722;SHT31;53633;49.932;10.884;2023-07-09T07:23:21;33.78;35.59
66722;SHT31;53633;49.932;10.884;2023-07-09T07:25:48;33.56;36.32
66722;SHT31;53633;49.932;10.884;2023-07-09T07:28:15;32.78;37.03
66722;SHT31;53633;49.932;10.884;2023-07-09T07:30:42;32.57;36.91
66722;SHT31;53633;49.932;10.884;2023-07-09T07:33:09;32.94;37.74
66722;SHT31;53633;49.932;10.884;2023-07-09T07:35:35;32.94;36.44
66722;SHT31;53633;49.932;10.884;2023-07-09T07:38:10;33.11;36.86
66722;SHT31;53633;49.932;10.884;2023-07-09T07:40:38;33.43;36.14
66722;SHT31;53633;49.932;10.884;2023-07-09T07:43:05;33.72;35.91
66722;SHT31;53633;49.932;10.884;2023-07-09T07:45:31;33.70;36.46
66722;SHT31;53633;49.932;10.884;2023-07-09T07:47:58;33.78;34.50
66722;SHT31;53633;49.932;10.884;2023-07-09T07:50:25;33.96;35.43
66722;SHT31;53633;49.932;10.884;2023-07-09T07:52:51;33.47;35.96
66722;SHT31;53633;49.932;10.884;2023-07-09T07:55:18;33.39;36.76
66722;SHT31;53633;49.932;10.884;2023-07-09T07:57:47;33.69;37.19
66722;SHT31;53633;49.932;10.884;2023-07-09T08:00:15;33.42;36.80
66722;SHT31;53633;49.932;10.884;2023-07-09T08:02:42;33.33;35.36
66722;SHT31;53633;49.932;10.884;2023-07-09T08:05:09;33.45;35.89
66722;SHT31;53633;49.932;10.884;2023-07-09T08:07:36;33.67;36.71
66722;SHT31;53633;49.932;10.884;2023-07-09T08:10:03;34.07;35.23
66722;SHT31;53633;49.932;10.884;2023-07-09T08:12:29;34.44;35.06
66722;SHT31;53633;49.932;10.884;2023-07-09T08:14:58;34.87;34.75
66722;SHT31;53633;49.932;10.884;2023-07-09T08:17:24;35.08;33.80
66722;SHT31;53633;49.932;10.884;2023-07-09T08:19:53;34.86;34.43
66722;SHT31;53633;49.932;10.884;2023-07-09T08:22:20;34.51;34.62
66722;SHT31;53633;49.932;10.884;2023-07-09T08:24:47;34.85;34.99
66722;SHT31;53633;49.932;10.884;2023-07-09T08:27:14;34.93;34.89
66722;SHT31;53633;49.932;10.884;2023-07-09T08:29:40;35.17;34.23
66722;SHT31;53633;49.932;10.884;2023-07-09T08:32:10;35.21;34.48
66722;SHT31;53633;49.932;10.884;2023-07-09T08:34:37;35.45;33.72
66722;SHT31;53633;49.932;10.884;2023-07-09T08:37:12;35.42;33.15
66722;SHT31;53633;49.932;10.884;2023-07-09T08:39:38;36.02;33.65
66722;SHT31;53633;49.932;10.884;2023-07-09T08:42:09;36.17;33.12
66722;SHT31;53633;49.932;10.884;2023-07-09T08:45:00;36.34;33.39
66722;SHT31;53633;49.932;10.884;2023-07-09T08:47:35;36.92;32.14
66722;SHT31;53633;49.932;10.884;2023-07-09T08:50:08;37.18;31.98
66722;SHT31;53633;49.932;10.884;2023-07-09T08:52:36;36.54;33.31
66722;SHT31;53633;49.932;10.884;2023-07-09T08:55:07;37.08;32.41
66722;SHT31;53633;49.932;10.884;2023-07-09T08:57:38;37.18;32.04
66722;SHT31;53633;49.932;10.884;2023-07-09T09:00:13;37.77;31.61
66722;SHT31;53633;49.932;10.884;2023-07-09T09:02:46;37.98;30.95
66722;SHT31;53633;49.932;10.884;2023-07-09T09:05:18;38.14;31.16
66722;SHT31;53633;49.932;10.884;2023-07-09T09:07:49;38.62;30.66
66722;SHT31;53633;49.932;10.884;2023-07-09T09:10:20;38.52;31.05
66722;SHT31;53633;49.932;10.884;2023-07-09T09:12:58;38.90;30.48
66722;SHT31;53633;49.932;10.884;2023-07-09T09:15:26;38.66;30.35
66722;SHT31;53633;49.932;10.884;2023-07-09T09:18:17;38.51;30.26
66722;SHT31;53633;49.932;10.884;2023-07-09T09:20:48;38.74;30.36
66722;SHT31;53633;49.932;10.884;2023-07-09T09:23:18;38.39;30.19
66722;SHT31;53633;49.932;10.884;2023-07-09T09:25:49;38.59;30.73
66722;SHT31;53633;49.932;10.884;2023-07-09T09:28:38;39.04;30.17
66722;SHT31;53633;49.932;10.884;2023-07-09T09:31:04;38.70;30.62
66722;SHT31;53633;49.932;10.884;2023-07-09T09:33:40;38.96;30.83
66722;SHT31;53633;49.932;10.884;2023-07-09T09:36:14;38.84;30.06
66722;SHT31;53633;49.932;10.884;2023-07-09T09:38:42;38.07;31.09
66722;SHT31;53633;49.932;10.884;2023-07-09T09:41:12;38.40;31.31
66722;SHT31;53633;49.932;10.884;2023-07-09T09:43:42;38.21;31.15
66722;SHT31;53633;49.932;10.884;2023-07-09T09:46:09;38.80;30.59
66722;SHT31;53633;49.932;10.884;2023-07-09T09:48:44;39.21;28.08
66722;SHT31;53633;49.932;10.884;2023-07-09T09:51:12;38.84;29.42
66722;SHT31;53633;49.932;10.884;2023-07-09T09:53:40;39.44;28.99
66722;SHT31;53633;49.932;10.884;2023-07-09T09:56:14;39.20;29.07
66722;SHT31;53633;49.932;10.884;2023-07-09T09:58:41;38.59;28.42
66722;SHT31;53633;49.932;10.884;2023-07-09T10:01:14;38.69;27.64
66722;SHT31;53633;49.932;10.884;2023-07-09T10:03:41;38.73;27.59
66722;SHT31;53633;49.932;10.884;2023-07-09T10:06:14;38.89;29.57
66722;SHT31;53633;49.932;10.884;2023-07-09T10:08:46;39.27;27.73
66722;SHT31;53633;49.932;10.884;2023-07-09T10:11:20;39.25;27.45
66722;SHT31;53633;49.932;10.884;2023-07-09T10:13:49;39.11;27.44
66722;SHT31;53633;49.932;10.884;2023-07-09T10:16:23;38.96;27.77
66722;SHT31;53633;49.932;10.884;2023-07-09T10:18:54;38.94;27.86
66722;SHT31;53633;49.932;10.884;2023-07-09T10:21:28;37.88;28.47
66722;SHT31;53633;49.932;10.884;2023-07-09T10:24:09;37.14;28.76
66722;SHT31;53633;49.932;10.884;2023-07-09T10:26:40;36.99;29.76
66722;SHT31;53633;49.932;10.884;2023-07-09T10:29:30;36.64;30.55
66722;SHT31;53633;49.932;10.884;2023-07-09T10:32:09;36.33;30.96
66722;SHT31;53633;49.932;10.884;2023-07-09T10:34:43;36.20;30.87
66722;SHT31;53633;49.932;10.884;2023-07-09T10:37:27;35.93;30.56
66722;SHT31;53633;49.932;10.884;2023-07-09T10:39:59;35.79;30.56
66722;SHT31;53633;49.932;10.884;2023-07-09T10:42:32;35.84;31.68
66722;SHT31;53633;49.932;10.884;2023-07-09T10:45:03;35.66;31.21
66722;SHT31;53633;49.932;10.884;2023-07-09T10:47:36;35.08;32.39
66722;SHT31;53633;49.932;10.884;2023-07-09T10:50:09;34.90;33.36
66722;SHT31;53633;49.932;10.884;2023-07-09T10:52:42;34.93;32.71
66722;SHT31;53633;49.932;10.884;2023-07-09T10:55:16;35.37;30.94
66722;SHT31;53633;49.932;10.884;2023-07-09T10:57:48;35.42;31.33
66722;SHT31;53633;49.932;10.884;2023-07-09T11:00:17;35.62;30.90
66722;SHT31;53633;49.932;10.884;2023-07-09T11:02:45;35.42;31.23
66722;SHT31;53633;49.932;10.884;2023-07-09T11:05:14;35.40;32.95
66722;SHT31;53633;49.932;10.884;2023-07-09T11:07:45;35.26;35.06
66722;SHT31;53633;49.932;10.884;2023-07-09T11:10:26;35.04;32.34
66722;SHT31;53633;49.932;10.884;2023-07-09T11:12:59;34.89;33.59
66722;SHT31;53633;49.932;10.884;2023-07-09T11:15:31;34.80;33.72
66722;SHT31;53633;49.932;10.884;2023-07-09T11:17:59;34.66;31.68
66722;SHT31;53633;49.932;10.884;2023-07-09T11:20:32;34.69;32.57
66722;SHT31;53633;49.932;10.884;2023-07-09T11:23:04;34.69;32.00
66722;SHT31;53633;49.932;10.884;2023-07-09T11:25:41;34.83;31.62
66722;SHT31;53633;49.932;10.884;2023-07-09T11:28:08;34.79;31.43
66722;SHT31;53633;49.932;10.884;2023-07-09T11:30:46;34.70;31.23
66722;SHT31;53633;49.932;10.884;2023-07-09T11:33:18;34.59;31.08
66722;SHT31;53633;49.932;10.884;2023-07-09T11:35:53;34.78;30.66
66722;SHT31;53633;49.932;10.884;2023-07-09T11:38:23;34.99;29.06
66722;SHT31;53633;49.932;10.884;2023-07-09T11:40:51;34.83;30.56
66722;SHT31;53633;49.932;10.884;2023-07-09T11:43:33;34.93;29.93
66722;SHT31;53633;49.932;10.884;2023-07-09T11:46:07;34.85;30.56
66722;SHT31;53633;49.932;10.884;2023-07-09T11:48:38;34.83;29.64
66722;SHT31;53633;49.932;10.884;2023-07-09T11:51:10;34.80;29.52
66722;SHT31;53633;49.932;10.884;2023-07-09T11:53:45;34.83;29.17
66722;SHT31;53633;49.932;10.884;2023-07-09T11:56:13;35.40;29.52
66722;SHT31;53633;49.932;10.884;2023-07-09T11:58:49;35.79;29.32
66722;SHT31;53633;49.932;10.884;2023-07-09T12:01:18;35.54;30.20
66722;SHT31;53633;49.932;10.884;2023-07-09T12:03:46;35.42;30.75
66722;SHT31;53633;49.932;10.884;2023-07-09T12:06:18;35.57;29.64
66722;SHT31;53633;49.932;10.884;2023-07-09T12:08:48;35.33;30.85
66722;SHT31;53633;49.932;10.884;2023-07-09T12:11:20;35.37;30.54
66722;SHT31;53633;49.932;10.884;2023-07-09T12:13:48;35.15;30.33
66722;SHT31;53633;49.932;10.884;2023-07-09T12:16:23;35.14;30.40
66722;SHT31;53633;49.932;10.884;2023-07-09T12:18:50;35.10;29.99
66722;SHT31;53633;49.932;10.884;2023-07-09T12:21:18;35.17;29.95
66722;SHT31;53633;49.932;10.884;2023-07-09T12:23:45;35.07;30.11
66722;SHT31;53633;49.932;10.884;2023-07-09T12:26:15;34.99;30.79
66722;SHT31;53633;49.932;10.884;2023-07-09T12:28:42;34.85;30.47
66722;SHT31;53633;49.932;10.884;2023-07-09T12:31:13;34.79;29.96
66722;SHT31;53633;49.932;10.884;2023-07-09T12:33:47;34.83;32.04
66722;SHT31;53633;49.932;10.884;2023-07-09T12:36:14;34.75;30.26
66722;SHT31;53633;49.932;10.884;2023-07-09T12:38:42;34.90;29.24
66722;SHT31;53633;49.932;10.884;2023-07-09T12:41:19;34.70;31.75
66722;SHT31;53633;49.932;10.884;2023-07-09T12:43:46;34.86;30.49
66722;SHT31;53633;49.932;10.884;2023-07-09T12:46:13;34.69;32.02
66722;SHT31;53633;49.932;10.884;2023-07-09T12:48:40;34.75;31.67
66722;SHT31;53633;49.932;10.884;2023-07-09T12:51:08;34.72;31.41
66722;SHT31;53633;49.932;10.884;2023-07-09T12:53:36;34.70;31.15
66722;SHT31;53633;49.932;10.884;2023-07-09T12:56:11;34.72;31.34
66722;SHT31;53633;49.932;10.884;2023-07-09T12:58:39;34.66;31.13
66722;SHT31;53633;49.932;10.884;2023-07-09T13:01:15;34.89;30.92
66722;SHT31;53633;49.932;10.884;2023-07-09T13:03:53;34.86;31.71
66722;SHT31;53633;49.932;10.884;2023-07-09T13:06:28;34.78;33.29
66722;SHT31;53633;49.932;10.884;2023-07-09T13:08:56;34.65;30.64
66722;SHT31;53633;49.932;10.884;2023-07-09T13:11:24;34.68;31.19
66722;SHT31;53633;49.932;10.884;2023-07-09T13:13:56;34.58;30.99
66722;SHT31;53633;49.932;10.884;2023-07-09T13:16:24;34.62;32.41
66722;SHT31;53633;49.932;10.884;2023-07-09T13:18:51;34.58;31.60
66722;SHT31;53633;49.932;10.884;2023-07-09T13:21:19;34.59;31.66
66722;SHT31;53633;49.932;10.884;2023-07-09T13:23:46;34.49;31.40
66722;SHT31;53633;49.932;10.884;2023-07-09T13:26:13;34.59;31.05
66722;SHT31;53633;49.932;10.884;2023-07-09T13:28:40;34.44;30.79
66722;SHT31;53633;49.932;10.884;2023-07-09T13:31:11;34.44;32.06
66722;SHT31;53633;49.932;10.884;2023-07-09T13:33:39;34.52;30.97
66722;SHT31;53633;49.932;10.884;2023-07-09T13:36:06;34.62;31.40
66722;SHT31;53633;49.932;10.884;2023-07-09T13:38:33;34.58;31.64
66722;SHT31;53633;49.932;10.884;2023-07-09T13:41:10;34.60;32.46
66722;SHT31;53633;49.932;10.884;2023-07-09T13:43:39;34.51;32.20
66722;SHT31;53633;49.932;10.884;2023-07-09T13:46:08;34.52;31.66
66722;SHT31;53633;49.932;10.884;2023-07-09T13:48:37;34.41;33.63
66722;SHT31;53633;49.932;10.884;2023-07-09T13:51:14;34.32;31.21
66722;SHT31;53633;49.932;10.884;2023-07-09T13:53:41;34.41;32.16
66722;SHT31;53633;49.932;10.884;2023-07-09T13:56:07;34.39;32.31
66722;SHT31;53633;49.932;10.884;2023-07-09T13:58:34;34.38;32.39
66722;SHT31;53633;49.932;10.884;2023-07-09T14:01:11;34.31;32.08
66722;SHT31;53633;49.932;10.884;2023-07-09T14:03:39;34.38;31.72
66722;SHT31;53633;49.932;10.884;2023-07-09T14:06:08;34.37;31.99
66722;SHT31;53633;49.932;10.884;2023-07-09T14:08:35;34.28;31.98
66722;SHT31;53633;49.932;10.884;2023-07-09T14:11:02;34.22;32.51
66722;SHT31;53633;49.932;10.884;2023-07-09T14:13:30;34.24;32.65
66722;SHT31;53633;49.932;10.884;2023-07-09T14:15:56;34.24;31.93
66722;SHT31;53633;49.932;10.884;2023-07-09T14:18:25;34.22;32.59
66722;SHT31;53633;49.932;10.884;2023-07-09T14:20:52;34.21;32.62
66722;SHT31;53633;49.932;10.884;2023-07-09T14:23:20;34.24;32.82
66722;SHT31;53633;49.932;10.884;2023-07-09T14:25:47;34.24;31.83
66722;SHT31;53633;49.932;10.884;2023-07-09T14:28:16;34.25;30.94
66722;SHT31;53633;49.932;10.884;2023-07-09T14:30:44;34.32;31.41
66722;SHT31;53633;49.932;10.884;2023-07-09T14:33:12;34.44;31.92
66722;SHT31;53633;49.932;10.884;2023-07-09T14:35:41;34.60;31.02
66722;SHT31;53633;49.932;10.884;2023-07-09T14:38:15;34.70;31.56
66722;SHT31;53633;49.932;10.884;2023-07-09T14:40:42;34.69;32.25
66722;SHT31;53633;49.932;10.884;2023-07-09T14:43:10;34.69;31.51
66722;SHT31;53633;49.932;10.884;2023-07-09T14:45:37;34.75;31.34
66722;SHT31;53633;49.932;10.884;2023-07-09T14:48:09;34.75;31.66
66722;SHT31;53633;49.932;10.884;2023-07-09T14:50:36;34.72;31.54
66722;SHT31;53633;49.932;10.884;2023-07-09T14:53:08;34.69;30.87
66722;SHT31;53633;49.932;10.884;2023-07-09T14:58:15;34.63;30.47
66722;SHT31;53633;49.932;10.884;2023-07-09T15:00:43;34.66;31.41
66722;SHT31;53633;49.932;10.884;2023-07-09T15:03:11;34.72;31.13
66722;SHT31;53633;49.932;10.884;2023-07-09T15:05:38;34.75;29.93
66722;SHT31;53633;49.932;10.884;2023-07-09T15:08:13;34.66;30.40
66722;SHT31;53633;49.932;10.884;2023-07-09T15:10:40;34.68;31.56
66722;SHT31;53633;49.932;10.884;2023-07-09T15:13:14;34.63;30.76
66722;SHT31;53633;49.932;10.884;2023-07-09T15:15:42;34.63;31.57
66722;SHT31;53633;49.932;10.884;2023-07-09T15:18:11;34.59;31.95
66722;SHT31;53633;49.932;10.884;2023-07-09T15:20:38;34.59;31.57
66722;SHT31;53633;49.932;10.884;2023-07-09T15:23:05;34.58;31.70
66722;SHT31;53633;49.932;10.884;2023-07-09T15:25:33;34.55;31.96
66722;SHT31;53633;49.932;10.884;2023-07-09T15:28:00;34.47;31.95